createdAt,value
2022-11-14T00:00:54.865Z,23.60
2022-11-14T00:03:42.107Z,19.30
2022-11-14T00:06:29.258Z,23.07
2022-11-14T00:09:16.423Z,28.23
2022-11-14T00:12:03.618Z,25.90
2022-11-14T00:14:52.185Z,24.33
2022-11-14T00:17:39.203Z,23.27
2022-11-14T00:20:26.633Z,28.00
2022-11-14T00:23:13.658Z,24.60
2022-11-14T00:26:00.571Z,23.50
2022-11-14T00:28:47.861Z,24.90
2022-11-14T00:31:36.574Z,29.37
2022-11-14T00:34:23.896Z,23.07
2022-11-14T00:37:10.905Z,27.23
2022-11-14T00:39:57.806Z,25.87
2022-11-14T00:42:44.779Z,27.07
2022-11-14T00:45:31.679Z,25.40
2022-11-14T00:48:20.184Z,32.27
2022-11-14T00:51:07.973Z,32.30
2022-11-14T00:53:54.986Z,28.33
2022-11-14T00:56:41.939Z,28.60
2022-11-14T00:59:29.053Z,28.93
2022-11-14T01:02:16.119Z,34.70
2022-11-14T01:05:04.794Z,34.93
2022-11-14T01:07:51.743Z,30.43
2022-11-14T01:10:41.903Z,32.83
2022-11-14T01:13:33.043Z,31.97
2022-11-14T01:16:20.544Z,26.23
2022-11-14T01:19:07.576Z,32.00
2022-11-14T01:21:56.037Z,35.63
2022-11-14T01:24:43.340Z,31.50
2022-11-14T01:27:32.754Z,29.93
2022-11-14T01:30:20.201Z,32.97
2022-11-14T01:33:07.241Z,28.93
2022-11-14T01:35:54.259Z,38.80
2022-11-14T01:38:42.575Z,29.03
2022-11-14T01:41:29.910Z,33.27
2022-11-14T01:44:19.554Z,36.63
2022-11-14T01:47:07.559Z,29.10
2022-11-14T01:49:58.951Z,36.80
2022-11-14T01:52:46.607Z,36.60
2022-11-14T01:55:35.130Z,37.37
2022-11-14T01:58:23.232Z,34.30
2022-11-14T02:01:10.310Z,35.40
2022-11-14T02:03:58.291Z,35.50
2022-11-14T02:06:47.043Z,35.47
2022-11-14T02:09:37.999Z,33.03
2022-11-14T02:12:26.492Z,35.73
2022-11-14T02:15:15.378Z,36.67
2022-11-14T02:18:03.049Z,35.63
2022-11-14T02:20:51.125Z,32.87
2022-11-14T02:23:38.407Z,34.03
2022-11-14T02:26:25.770Z,29.57
2022-11-14T02:29:12.808Z,40.33
2022-11-14T02:31:59.832Z,35.87
2022-11-14T02:34:47.117Z,37.10
2022-11-14T02:37:35.896Z,38.20
2022-11-14T02:40:23.043Z,44.40
2022-11-14T02:43:09.943Z,39.53
2022-11-14T02:45:59.185Z,37.53
2022-11-14T02:48:49.817Z,39.10
2022-11-14T02:51:37.072Z,41.13
2022-11-14T02:54:25.304Z,34.50
2022-11-14T02:57:12.494Z,39.60
2022-11-14T02:59:59.884Z,33.77
2022-11-14T03:02:47.090Z,40.13
2022-11-14T03:05:34.234Z,46.90
2022-11-14T03:08:21.790Z,40.87
2022-11-14T03:11:11.367Z,39.30
2022-11-14T03:13:58.331Z,40.90
2022-11-14T03:16:45.627Z,39.30
2022-11-14T03:19:32.640Z,42.87
2022-11-14T03:22:19.556Z,50.77
2022-11-14T03:25:07.255Z,57.50
2022-11-14T03:27:55.794Z,56.67
2022-11-14T03:30:43.091Z,58.17
2022-11-14T03:33:29.989Z,50.87
2022-11-14T03:36:16.802Z,49.03
2022-11-14T03:39:05.024Z,47.57
2022-11-14T03:41:52.083Z,49.03
2022-11-14T03:44:40.681Z,49.37
2022-11-14T03:47:27.927Z,51.60
2022-11-14T03:50:15.029Z,56.83
2022-11-14T03:53:01.980Z,47.63
2022-11-14T03:55:48.874Z,50.13
2022-11-14T03:58:35.970Z,50.17
2022-11-14T04:01:24.235Z,55.97
2022-11-14T04:04:12.983Z,53.23
2022-11-14T04:07:00.146Z,58.60
2022-11-14T04:09:47.527Z,45.80
2022-11-14T04:12:34.338Z,53.93
2022-11-14T04:15:22.105Z,45.67
2022-11-14T04:18:10.378Z,54.50
2022-11-14T04:20:57.500Z,47.30
2022-11-14T04:23:44.366Z,44.00
2022-11-14T04:26:31.356Z,46.10
2022-11-14T04:29:18.295Z,43.40
2022-11-14T04:32:06.023Z,40.67
2022-11-14T04:34:54.500Z,44.83
2022-11-14T04:37:41.674Z,42.47
2022-11-14T04:40:29.167Z,38.43
2022-11-14T04:43:15.826Z,41.53
2022-11-14T04:46:02.897Z,45.67
2022-11-14T04:48:49.892Z,47.33
2022-11-14T04:51:38.602Z,42.73
2022-11-14T04:54:25.591Z,43.13
2022-11-14T04:57:12.582Z,51.73
2022-11-14T04:59:59.519Z,47.17
2022-11-14T05:02:46.286Z,48.80
2022-11-14T05:05:35.922Z,42.73
2022-11-14T05:08:27.432Z,41.07
2022-11-14T05:11:16.607Z,50.23
2022-11-14T05:14:03.984Z,42.03
2022-11-14T05:16:50.950Z,39.87
2022-11-14T05:19:38.303Z,46.17
2022-11-14T05:22:25.385Z,43.40
2022-11-14T05:25:13.846Z,40.33
2022-11-14T05:28:00.958Z,46.40
2022-11-14T05:30:47.919Z,41.30
2022-11-14T05:33:35.796Z,40.40
2022-11-14T05:36:22.711Z,36.53
2022-11-14T05:39:09.806Z,38.23
2022-11-14T05:41:58.164Z,38.30
2022-11-14T05:44:45.329Z,35.37
2022-11-14T05:47:32.182Z,36.57
2022-11-14T05:50:19.147Z,40.27
2022-11-14T05:53:06.189Z,44.83
2022-11-14T05:55:53.079Z,42.13
2022-11-14T05:58:42.223Z,51.90
2022-11-14T06:01:29.908Z,40.60
2022-11-14T06:04:17.153Z,38.63
2022-11-14T06:07:04.026Z,45.37
2022-11-14T06:09:51.026Z,56.33
2022-11-14T06:12:37.935Z,36.97
2022-11-14T06:15:26.196Z,45.77
2022-11-14T06:18:13.814Z,42.20
2022-11-14T06:21:01.591Z,30.93
2022-11-14T06:23:50.345Z,38.97
2022-11-14T06:26:38.056Z,42.70
2022-11-14T06:29:25.034Z,40.13
2022-11-14T06:32:13.668Z,42.70
2022-11-14T06:35:01.148Z,40.40
2022-11-14T06:37:48.263Z,41.27
2022-11-14T06:40:35.321Z,36.60
2022-11-14T06:43:22.592Z,44.20
2022-11-14T06:46:12.122Z,34.57
2022-11-14T06:49:00.694Z,34.33
2022-11-14T06:51:50.926Z,37.37
2022-11-14T06:54:38.407Z,39.23
2022-11-14T06:57:25.758Z,36.27
2022-11-14T07:00:13.551Z,36.27
2022-11-14T07:03:00.725Z,38.10
2022-11-14T07:05:49.914Z,40.20
2022-11-14T07:08:37.155Z,39.80
2022-11-14T07:11:27.784Z,43.53
2022-11-14T07:14:15.041Z,42.20
2022-11-14T07:17:02.261Z,44.83
2022-11-14T07:19:49.627Z,40.13
2022-11-14T07:22:38.324Z,37.93
2022-11-14T07:25:25.494Z,50.83
2022-11-14T07:28:12.794Z,39.83
2022-11-14T07:31:00.057Z,42.77
2022-11-14T07:33:47.994Z,38.93
2022-11-14T07:36:35.046Z,38.70
2022-11-14T07:39:23.623Z,39.40
2022-11-14T07:42:10.666Z,43.63
2022-11-14T07:44:57.769Z,42.23
2022-11-14T07:47:44.955Z,46.93
2022-11-14T07:50:31.993Z,45.23
2022-11-14T07:53:19.774Z,43.07
2022-11-14T07:56:10.987Z,41.20
2022-11-14T07:58:59.193Z,46.00
2022-11-14T08:01:46.449Z,43.03
2022-11-14T08:04:33.324Z,42.83
2022-11-14T08:07:20.548Z,43.00
2022-11-14T08:10:09.078Z,36.93
2022-11-14T08:13:29.782Z,43.17
2022-11-14T08:16:13.795Z,47.87
2022-11-14T08:19:01.357Z,63.70
2022-11-14T08:21:48.599Z,49.50
2022-11-14T08:24:35.834Z,46.27
2022-11-14T08:27:23.154Z,54.50
2022-11-14T08:30:13.787Z,52.70
2022-11-14T08:33:03.881Z,46.57
2022-11-14T08:35:50.945Z,41.40
2022-11-14T08:38:38.412Z,41.90
2022-11-14T08:41:25.564Z,36.53
2022-11-14T08:44:12.431Z,38.93
2022-11-14T08:47:02.199Z,38.90
2022-11-14T08:49:49.140Z,36.87
2022-11-14T08:52:36.048Z,30.17
2022-11-14T08:55:22.891Z,35.17
2022-11-14T08:58:09.893Z,43.77
2022-11-14T09:01:01.435Z,35.80
2022-11-14T09:03:52.225Z,32.20
2022-11-14T09:06:42.976Z,32.63
2022-11-14T09:09:30.426Z,32.30
2022-11-14T09:12:18.053Z,36.23
2022-11-14T09:15:05.432Z,35.50
2022-11-14T09:17:54.674Z,29.63
2022-11-14T09:20:43.311Z,29.63
2022-11-14T09:23:30.700Z,31.30
2022-11-14T09:26:19.554Z,26.47
2022-11-14T09:29:06.697Z,22.47
2022-11-14T09:31:55.046Z,19.90
2022-11-14T09:34:45.828Z,20.53
2022-11-14T09:37:34.440Z,19.80
2022-11-14T09:40:21.970Z,19.30
2022-11-14T09:43:27.686Z,20.63
2022-11-14T09:46:22.723Z,21.73
2022-11-14T09:49:18.568Z,26.47
2022-11-14T09:52:13.318Z,30.10
2022-11-14T09:55:10.398Z,25.60
2022-11-14T09:57:58.156Z,19.77
2022-11-14T10:00:50.688Z,18.17
2022-11-14T10:03:48.103Z,21.17
2022-11-14T10:06:39.840Z,16.30
2022-11-14T10:09:41.959Z,19.33
2022-11-14T10:12:41.638Z,23.23
2022-11-14T10:15:38.145Z,15.73
2022-11-14T10:18:37.791Z,19.67
2022-11-14T10:21:39.556Z,21.27
2022-11-14T10:24:39.749Z,17.87
2022-11-14T10:27:32.628Z,20.60
2022-11-14T10:30:20.874Z,17.07
2022-11-14T10:33:24.109Z,19.43
2022-11-14T10:36:22.762Z,17.40
2022-11-14T10:39:17.621Z,18.10
2022-11-14T10:42:12.794Z,21.77
2022-11-14T10:45:06.603Z,22.23
2022-11-14T10:47:57.790Z,19.83
2022-11-14T10:50:50.996Z,18.20
2022-11-14T10:53:46.682Z,19.63
2022-11-14T10:56:33.894Z,17.60
2022-11-14T10:59:21.648Z,17.20
2022-11-14T11:02:11.447Z,17.77
2022-11-14T11:05:13.593Z,18.60
2022-11-14T11:11:33.054Z,17.33
2022-11-14T11:14:20.752Z,19.90
2022-11-14T11:17:20.744Z,19.63
2022-11-14T11:20:27.026Z,20.70
2022-11-14T11:23:28.157Z,20.57
2022-11-14T11:26:21.102Z,20.00
2022-11-14T11:29:17.125Z,26.33
2022-11-14T11:32:04.125Z,18.83
2022-11-14T11:34:53.269Z,19.47
2022-11-14T11:37:45.591Z,20.73
2022-11-14T11:40:32.938Z,18.60
2022-11-14T11:43:50.303Z,18.63
2022-11-14T11:46:49.297Z,17.00
2022-11-14T11:49:48.757Z,15.23
2022-11-14T11:52:51.191Z,18.00
2022-11-14T11:55:42.813Z,18.60
2022-11-14T11:58:37.190Z,22.20
2022-11-14T12:01:25.220Z,20.73
2022-11-14T12:04:12.520Z,17.47
2022-11-14T12:07:07.669Z,17.40
2022-11-14T12:10:12.864Z,16.87
2022-11-14T12:13:34.216Z,18.47
2022-11-14T12:16:59.267Z,17.13
2022-11-14T12:20:08.681Z,21.73
2022-11-14T12:23:30.126Z,18.83
2022-11-14T12:26:49.765Z,20.43
2022-11-14T12:29:53.087Z,24.30
2022-11-14T12:32:44.724Z,40.23
2022-11-14T12:35:34.775Z,27.80
2022-11-14T12:38:23.699Z,28.83
2022-11-14T12:41:11.598Z,28.50
2022-11-14T12:44:20.743Z,28.77
2022-11-14T12:47:18.983Z,26.97
2022-11-14T12:50:28.909Z,26.77
2022-11-14T12:53:42.174Z,27.87
2022-11-14T12:56:57.144Z,29.47
2022-11-14T12:59:53.644Z,27.77
2022-11-14T13:03:14.317Z,28.33
2022-11-14T13:06:06.140Z,23.77
2022-11-14T13:09:34.854Z,26.00
2022-11-14T13:12:55.386Z,26.63
2022-11-14T13:16:08.147Z,21.93
2022-11-14T13:19:20.175Z,28.73
2022-11-14T13:22:39.171Z,26.73
2022-11-14T13:25:26.759Z,25.73
2022-11-14T13:28:45.235Z,25.13
2022-11-14T13:31:48.127Z,23.97
2022-11-14T13:34:53.274Z,25.47
2022-11-14T13:38:06.733Z,24.53
2022-11-14T13:41:03.308Z,24.97
2022-11-14T13:44:05.093Z,28.60
2022-11-14T13:47:07.921Z,32.00
2022-11-14T13:50:03.499Z,27.27
2022-11-14T13:52:50.545Z,24.57
2022-11-14T13:55:53.230Z,27.27
2022-11-14T13:58:57.894Z,28.03
2022-11-14T14:02:04.570Z,30.43
2022-11-14T14:05:03.673Z,30.67
2022-11-14T14:08:06.402Z,28.43
2022-11-14T14:11:03.970Z,31.93
2022-11-14T14:14:01.460Z,32.60
2022-11-14T14:16:56.929Z,35.90
2022-11-14T14:19:58.158Z,34.80
2022-11-14T14:22:57.843Z,35.53
2022-11-14T14:25:52.667Z,34.87
2022-11-14T14:28:48.959Z,37.17
2022-11-14T14:31:38.250Z,41.67
2022-11-14T14:34:28.352Z,40.23
2022-11-14T14:37:20.559Z,37.40
2022-11-14T14:40:24.886Z,37.00
2022-11-14T14:43:28.452Z,39.77
2022-11-14T14:46:15.713Z,33.70
2022-11-14T14:49:05.679Z,38.47
2022-11-14T14:51:57.245Z,36.07
2022-11-14T14:54:56.012Z,40.63
2022-11-14T14:57:44.536Z,38.40
2022-11-14T15:00:31.499Z,41.87
2022-11-14T15:03:19.892Z,38.27
2022-11-14T15:06:19.487Z,36.57
2022-11-14T15:09:11.578Z,32.13
2022-11-14T15:12:01.342Z,32.63
2022-11-14T15:14:50.594Z,35.50
2022-11-14T15:17:37.669Z,34.13
2022-11-14T15:20:27.592Z,34.90
2022-11-14T15:23:21.144Z,35.70
2022-11-14T15:26:16.046Z,40.00
2022-11-14T15:29:08.259Z,29.97
2022-11-14T15:31:58.728Z,34.47
2022-11-14T15:35:05.708Z,30.80
2022-11-14T15:38:36.759Z,41.07
2022-11-14T15:41:22.548Z,31.50
2022-11-14T15:44:30.393Z,32.00
2022-11-14T15:47:24.222Z,32.10
2022-11-14T15:50:28.615Z,36.07
2022-11-14T15:53:23.788Z,33.37
2022-11-14T15:56:14.121Z,34.60
2022-11-14T15:59:01.219Z,37.60
2022-11-14T16:01:52.828Z,39.33
2022-11-14T16:04:47.049Z,35.07
2022-11-14T16:07:35.003Z,42.73
2022-11-14T16:10:24.300Z,42.10
2022-11-14T16:13:12.095Z,33.37
2022-11-14T16:15:58.924Z,42.87
2022-11-14T16:18:45.875Z,39.33
2022-11-14T16:21:34.512Z,36.50
2022-11-14T16:24:24.488Z,39.93
2022-11-14T16:27:11.415Z,39.13
2022-11-14T16:29:58.156Z,36.67
2022-11-14T16:32:46.807Z,40.60
2022-11-14T16:35:33.679Z,38.17
2022-11-14T16:38:21.894Z,39.33
2022-11-14T16:41:08.927Z,36.20
2022-11-14T16:43:57.412Z,35.83
2022-11-14T16:46:45.108Z,43.30
2022-11-14T16:49:31.980Z,37.87
2022-11-14T16:52:19.822Z,43.87
2022-11-14T16:55:09.661Z,43.87
2022-11-14T16:57:56.917Z,44.67
2022-11-14T17:00:44.259Z,42.13
2022-11-14T17:03:33.352Z,56.20
2022-11-14T17:06:20.846Z,51.43
2022-11-14T17:09:08.251Z,50.57
2022-11-14T17:11:56.753Z,66.47
2022-11-14T17:14:44.015Z,66.70
2022-11-14T17:17:31.922Z,60.10
2022-11-14T17:20:19.463Z,51.63
2022-11-14T17:23:06.796Z,49.37
2022-11-14T17:25:54.083Z,51.37
2022-11-14T17:28:43.273Z,50.20
2022-11-14T17:31:35.032Z,52.93
2022-11-14T17:34:24.428Z,51.87
2022-11-14T17:37:11.323Z,57.30
2022-11-14T17:39:58.711Z,51.33
2022-11-14T17:42:46.152Z,47.07
2022-11-14T17:45:37.866Z,47.17
2022-11-14T17:48:28.470Z,41.80
2022-11-14T17:51:16.951Z,49.80
2022-11-14T17:54:04.152Z,54.50
2022-11-14T17:56:54.949Z,51.37
2022-11-14T17:59:42.522Z,49.83
2022-11-14T18:02:31.002Z,52.67
2022-11-14T18:05:18.071Z,62.13
2022-11-14T18:08:05.569Z,56.17
2022-11-14T18:10:53.321Z,58.63
2022-11-14T18:13:41.027Z,65.33
2022-11-14T18:16:44.534Z,53.07
2022-11-14T18:19:37.119Z,51.93
2022-11-14T18:22:24.358Z,45.83
2022-11-14T18:25:11.343Z,56.70
2022-11-14T18:27:58.146Z,46.43
2022-11-14T18:30:55.435Z,43.70
2022-11-14T18:33:43.240Z,47.13
2022-11-14T18:36:31.518Z,49.73
2022-11-14T18:39:18.694Z,49.97
2022-11-14T18:42:06.120Z,54.60
2022-11-14T18:44:53.271Z,56.43
2022-11-14T18:47:40.355Z,60.00
2022-11-14T18:50:27.714Z,50.60
2022-11-14T18:53:16.071Z,45.37
2022-11-14T18:56:05.630Z,35.63
2022-11-14T18:58:55.199Z,38.53
2022-11-14T19:01:42.772Z,33.27
2022-11-14T19:04:30.030Z,35.00
2022-11-14T19:07:17.020Z,27.73
2022-11-14T19:10:05.892Z,31.43
2022-11-14T19:12:52.770Z,28.97
2022-11-14T19:15:40.831Z,25.93
2022-11-14T19:18:27.675Z,28.50
2022-11-14T19:21:14.649Z,28.20
2022-11-14T19:24:02.578Z,35.20
2022-11-14T19:26:50.896Z,35.10
2022-11-14T19:29:39.275Z,32.50
2022-11-14T19:32:26.529Z,28.37
2022-11-14T19:35:20.144Z,28.17
2022-11-14T19:38:07.855Z,38.80
2022-11-14T19:40:54.739Z,29.30
2022-11-14T19:43:43.439Z,38.50
2022-11-14T19:46:31.068Z,39.57
2022-11-14T19:49:18.260Z,37.03
2022-11-14T19:52:06.163Z,41.37
2022-11-14T19:54:53.311Z,40.13
2022-11-14T19:57:40.656Z,41.63
2022-11-14T20:00:29.327Z,36.33
2022-11-14T20:03:16.482Z,35.13
2022-11-14T20:06:03.751Z,33.37
2022-11-14T20:08:51.222Z,36.10
2022-11-14T20:11:38.629Z,34.07
2022-11-14T20:14:25.591Z,33.13
2022-11-14T20:17:14.095Z,32.93
2022-11-14T20:20:01.125Z,31.83
2022-11-14T20:22:48.216Z,37.63
2022-11-14T20:25:38.120Z,37.57
2022-11-14T20:28:25.394Z,30.70
2022-11-14T20:31:14.514Z,32.93
2022-11-14T20:34:03.055Z,31.58
2022-11-14T20:39:58.418Z,30.13
2022-11-14T20:42:48.220Z,27.80
2022-11-14T20:45:35.304Z,24.37
2022-11-14T20:48:22.326Z,22.17
2022-11-14T20:51:13.852Z,24.70
2022-11-14T20:54:00.978Z,21.33
2022-11-14T20:56:47.853Z,24.13
2022-11-14T20:59:34.767Z,21.17
2022-11-14T21:02:21.586Z,31.73
2022-11-14T21:05:10.455Z,26.30
2022-11-14T21:07:58.814Z,21.50
2022-11-14T21:10:48.049Z,23.90
2022-11-14T21:13:53.967Z,26.43
2022-11-14T21:16:41.442Z,27.63
2022-11-14T21:19:29.674Z,29.33
2022-11-14T21:22:17.126Z,25.90
2022-11-14T21:25:06.443Z,25.40
2022-11-14T21:27:53.286Z,24.80
2022-11-14T21:30:40.326Z,22.40
2022-11-14T21:33:29.090Z,26.83
2022-11-14T21:39:25.020Z,28.53
2022-11-14T21:42:18.173Z,31.33
2022-11-14T21:45:06.408Z,32.33
2022-11-14T21:47:53.486Z,32.83
2022-11-14T21:50:40.414Z,31.83
2022-11-14T21:53:28.954Z,27.90
2022-11-14T21:56:18.134Z,27.13
2022-11-14T21:59:14.890Z,30.77
2022-11-14T22:02:19.583Z,26.40
2022-11-14T22:05:07.771Z,24.60
2022-11-14T22:07:54.861Z,26.17
2022-11-14T22:10:41.860Z,28.60
2022-11-14T22:13:31.083Z,27.97
2022-11-14T22:16:20.718Z,32.97
2022-11-14T22:19:07.682Z,27.50
2022-11-14T22:21:55.396Z,31.65
2022-11-14T22:24:42.373Z,28.60
2022-11-14T22:27:29.267Z,23.57
2022-11-14T22:30:16.496Z,28.00
2022-11-14T22:33:04.968Z,30.60
2022-11-14T22:35:51.810Z,23.10
2022-11-14T22:38:39.271Z,28.13
2022-11-14T22:41:32.362Z,35.37
2022-11-14T22:44:20.091Z,34.50
2022-11-14T22:47:07.277Z,30.17
2022-11-14T22:49:55.526Z,25.10
2022-11-14T22:52:42.902Z,38.47
2022-11-14T22:55:30.162Z,28.47
2022-11-14T22:58:17.043Z,29.03
2022-11-14T23:01:11.660Z,30.90
2022-11-14T23:03:59.907Z,42.40
2022-11-14T23:06:48.498Z,25.10
2022-11-14T23:09:35.339Z,34.53
2022-11-14T23:12:22.309Z,27.53
2022-11-14T23:15:09.903Z,27.33
2022-11-14T23:17:59.022Z,32.80
2022-11-14T23:20:47.173Z,30.13
2022-11-14T23:23:35.996Z,25.90
2022-11-14T23:26:23.622Z,24.27
2022-11-14T23:29:13.783Z,25.37
2022-11-14T23:32:00.894Z,31.87
2022-11-14T23:34:47.818Z,32.47
2022-11-14T23:37:35.148Z,31.33
2022-11-14T23:40:23.459Z,28.30
2022-11-14T23:43:10.428Z,27.23
2022-11-14T23:45:57.636Z,29.33
2022-11-14T23:48:44.705Z,36.33
2022-11-14T23:51:32.896Z,35.90
2022-11-14T23:54:20.323Z,32.87
2022-11-14T23:57:08.642Z,41.37
2022-11-14T23:59:55.460Z,36.20
